sensor_id;sensor_type;location;lat;lon;timestamp;P1;durP1;ratioP1;P2;durP2;ratioP2
59271;SDS011;45043;51.068;7.026;2023-05-14T00:15:04;11.90;;;9.73;;
59271;SDS011;45043;51.068;7.026;2023-05-14T00:18:05;9.93;;;8.93;;
59271;SDS011;45043;51.068;7.026;2023-05-14T00:21:06;10.10;;;6.13;;
59271;SDS011;45043;51.068;7.026;2023-05-14T00:24:06;7.07;;;5.83;;
59271;SDS011;45043;51.068;7.026;2023-05-14T00:27:07;8.33;;;6.33;;
59271;SDS011;45043;51.068;7.026;2023-05-14T00:30:07;7.67;;;6.97;;
59271;SDS011;45043;51.068;7.026;2023-05-14T00:33:08;7.50;;;6.73;;
59271;SDS011;45043;51.068;7.026;2023-05-14T00:36:08;7.73;;;6.73;;
59271;SDS011;45043;51.068;7.026;2023-05-14T00:39:09;10.67;;;9.47;;
59271;SDS011;45043;51.068;7.026;2023-05-14T00:42:10;10.27;;;9.20;;
59271;SDS011;45043;51.068;7.026;2023-05-14T00:45:10;8.47;;;7.60;;
59271;SDS011;45043;51.068;7.026;2023-05-14T00:48:12;7.97;;;6.60;;
59271;SDS011;45043;51.068;7.026;2023-05-14T00:51:13;7.00;;;6.27;;
59271;SDS011;45043;51.068;7.026;2023-05-14T00:54:14;6.47;;;5.87;;
59271;SDS011;45043;51.068;7.026;2023-05-14T00:57:15;7.10;;;6.40;;
59271;SDS011;45043;51.068;7.026;2023-05-14T01:00:17;7.03;;;5.90;;
59271;SDS011;45043;51.068;7.026;2023-05-14T01:03:18;7.33;;;5.70;;
59271;SDS011;45043;51.068;7.026;2023-05-14T01:16:32;8.53;;;6.43;;
59271;SDS011;45043;51.068;7.026;2023-05-14T01:22:39;6.53;;;5.93;;
59271;SDS011;45043;51.068;7.026;2023-05-14T01:25:39;19.90;;;17.90;;
59271;SDS011;45043;51.068;7.026;2023-05-14T01:28:40;13.93;;;12.53;;
59271;SDS011;45043;51.068;7.026;2023-05-14T01:31:43;7.70;;;6.90;;
59271;SDS011;45043;51.068;7.026;2023-05-14T01:34:45;8.10;;;7.20;;
59271;SDS011;45043;51.068;7.026;2023-05-14T01:37:47;7.30;;;6.60;;
59271;SDS011;45043;51.068;7.026;2023-05-14T01:40:49;7.80;;;7.10;;
59271;SDS011;45043;51.068;7.026;2023-05-14T01:43:51;6.90;;;6.30;;
59271;SDS011;45043;51.068;7.026;2023-05-14T01:46:52;6.90;;;6.30;;
59271;SDS011;45043;51.068;7.026;2023-05-14T01:49:53;6.93;;;6.27;;
59271;SDS011;45043;51.068;7.026;2023-05-14T01:52:54;7.67;;;6.30;;
59271;SDS011;45043;51.068;7.026;2023-05-14T01:55:55;7.50;;;6.80;;
59271;SDS011;45043;51.068;7.026;2023-05-14T01:58:56;7.40;;;6.70;;
59271;SDS011;45043;51.068;7.026;2023-05-14T02:01:59;7.27;;;6.57;;
59271;SDS011;45043;51.068;7.026;2023-05-14T02:04:59;11.03;;;6.60;;
59271;SDS011;45043;51.068;7.026;2023-05-14T02:08:00;7.97;;;7.17;;
59271;SDS011;45043;51.068;7.026;2023-05-14T02:11:00;7.33;;;6.73;;
59271;SDS011;45043;51.068;7.026;2023-05-14T02:14:00;12.30;;;6.80;;
59271;SDS011;45043;51.068;7.026;2023-05-14T02:17:01;8.17;;;6.63;;
59271;SDS011;45043;51.068;7.026;2023-05-14T02:20:02;7.07;;;6.23;;
59271;SDS011;45043;51.068;7.026;2023-05-14T02:23:03;7.10;;;6.40;;
59271;SDS011;45043;51.068;7.026;2023-05-14T02:26:03;7.20;;;6.60;;
59271;SDS011;45043;51.068;7.026;2023-05-14T02:29:04;7.80;;;6.60;;
59271;SDS011;45043;51.068;7.026;2023-05-14T02:32:04;8.70;;;7.30;;
59271;SDS011;45043;51.068;7.026;2023-05-14T02:35:05;7.80;;;7.10;;
59271;SDS011;45043;51.068;7.026;2023-05-14T02:38:06;8.63;;;7.77;;
59271;SDS011;45043;51.068;7.026;2023-05-14T02:41:06;9.20;;;6.83;;
59271;SDS011;45043;51.068;7.026;2023-05-14T02:44:07;8.70;;;7.47;;
59271;SDS011;45043;51.068;7.026;2023-05-14T02:47:07;9.53;;;7.17;;
59271;SDS011;45043;51.068;7.026;2023-05-14T02:50:07;10.37;;;8.80;;
59271;SDS011;45043;51.068;7.026;2023-05-14T02:53:08;9.20;;;8.20;;
59271;SDS011;45043;51.068;7.026;2023-05-14T02:56:09;11.00;;;9.07;;
59271;SDS011;45043;51.068;7.026;2023-05-14T02:59:09;10.90;;;8.57;;
59271;SDS011;45043;51.068;7.026;2023-05-14T03:02:10;9.40;;;8.43;;
59271;SDS011;45043;51.068;7.026;2023-05-14T03:05:11;12.13;;;10.23;;
59271;SDS011;45043;51.068;7.026;2023-05-14T03:08:11;10.33;;;8.43;;
59271;SDS011;45043;51.068;7.026;2023-05-14T03:11:11;9.90;;;7.97;;
59271;SDS011;45043;51.068;7.026;2023-05-14T03:14:12;11.00;;;9.90;;
59271;SDS011;45043;51.068;7.026;2023-05-14T03:17:12;12.60;;;10.30;;
59271;SDS011;45043;51.068;7.026;2023-05-14T03:20:13;11.20;;;9.77;;
59271;SDS011;45043;51.068;7.026;2023-05-14T03:23:13;10.27;;;8.97;;
59271;SDS011;45043;51.068;7.026;2023-05-14T03:26:14;8.60;;;7.77;;
59271;SDS011;45043;51.068;7.026;2023-05-14T03:29:14;9.63;;;8.67;;
59271;SDS011;45043;51.068;7.026;2023-05-14T03:32:17;9.10;;;8.23;;
59271;SDS011;45043;51.068;7.026;2023-05-14T03:35:17;10.20;;;7.60;;
59271;SDS011;45043;51.068;7.026;2023-05-14T03:38:18;8.27;;;7.47;;
59271;SDS011;45043;51.068;7.026;2023-05-14T03:41:20;8.80;;;7.90;;
59271;SDS011;45043;51.068;7.026;2023-05-14T03:44:21;7.70;;;7.03;;
59271;SDS011;45043;51.068;7.026;2023-05-14T03:47:22;10.93;;;8.17;;
59271;SDS011;45043;51.068;7.026;2023-05-14T03:50:22;8.77;;;7.87;;
59271;SDS011;45043;51.068;7.026;2023-05-14T03:53:24;9.40;;;7.53;;
59271;SDS011;45043;51.068;7.026;2023-05-14T03:56:25;11.47;;;7.90;;
59271;SDS011;45043;51.068;7.026;2023-05-14T03:59:26;8.57;;;7.77;;
59271;SDS011;45043;51.068;7.026;2023-05-14T04:02:27;9.27;;;8.37;;
59271;SDS011;45043;51.068;7.026;2023-05-14T04:05:29;8.70;;;7.90;;
59271;SDS011;45043;51.068;7.026;2023-05-14T04:08:29;11.70;;;8.60;;
59271;SDS011;45043;51.068;7.026;2023-05-14T04:11:30;11.97;;;8.73;;
59271;SDS011;45043;51.068;7.026;2023-05-14T04:14:30;8.53;;;7.73;;
59271;SDS011;45043;51.068;7.026;2023-05-14T04:17:31;9.20;;;8.30;;
59271;SDS011;45043;51.068;7.026;2023-05-14T04:20:31;8.63;;;7.73;;
59271;SDS011;45043;51.068;7.026;2023-05-14T04:23:32;8.83;;;7.90;;
59271;SDS011;45043;51.068;7.026;2023-05-14T04:26:32;7.60;;;6.77;;
59271;SDS011;45043;51.068;7.026;2023-05-14T04:29:33;7.77;;;7.07;;
59271;SDS011;45043;51.068;7.026;2023-05-14T04:32:33;8.77;;;7.90;;
59271;SDS011;45043;51.068;7.026;2023-05-14T04:35:33;9.10;;;8.20;;
59271;SDS011;45043;51.068;7.026;2023-05-14T04:38:34;8.03;;;7.13;;
59271;SDS011;45043;51.068;7.026;2023-05-14T04:41:34;14.13;;;7.60;;
59271;SDS011;45043;51.068;7.026;2023-05-14T04:44:35;9.43;;;8.60;;
59271;SDS011;45043;51.068;7.026;2023-05-14T04:47:36;7.67;;;6.80;;
59271;SDS011;45043;51.068;7.026;2023-05-14T04:50:37;7.70;;;7.00;;
59271;SDS011;45043;51.068;7.026;2023-05-14T04:53:38;8.47;;;7.67;;
59271;SDS011;45043;51.068;7.026;2023-05-14T04:56:38;10.23;;;7.40;;
59271;SDS011;45043;51.068;7.026;2023-05-14T04:59:38;7.87;;;6.93;;
59271;SDS011;45043;51.068;7.026;2023-05-14T05:02:39;7.77;;;7.07;;
59271;SDS011;45043;51.068;7.026;2023-05-14T05:05:39;6.90;;;6.30;;
59271;SDS011;45043;51.068;7.026;2023-05-14T05:08:39;7.17;;;6.57;;
59271;SDS011;45043;51.068;7.026;2023-05-14T05:11:40;7.63;;;6.80;;
59271;SDS011;45043;51.068;7.026;2023-05-14T05:14:41;6.70;;;6.10;;
59271;SDS011;45043;51.068;7.026;2023-05-14T05:17:41;9.93;;;7.53;;
59271;SDS011;45043;51.068;7.026;2023-05-14T05:20:41;8.43;;;6.80;;
59271;SDS011;45043;51.068;7.026;2023-05-14T05:23:42;8.33;;;6.07;;
59271;SDS011;45043;51.068;7.026;2023-05-14T05:26:42;6.77;;;6.07;;
59271;SDS011;45043;51.068;7.026;2023-05-14T05:29:43;10.13;;;6.47;;
59271;SDS011;45043;51.068;7.026;2023-05-14T05:32:43;6.50;;;5.87;;
59271;SDS011;45043;51.068;7.026;2023-05-14T05:35:44;8.10;;;5.93;;
59271;SDS011;45043;51.068;7.026;2023-05-14T05:38:45;7.57;;;6.40;;
59271;SDS011;45043;51.068;7.026;2023-05-14T05:41:46;7.40;;;6.63;;
59271;SDS011;45043;51.068;7.026;2023-05-14T05:44:46;7.70;;;6.80;;
59271;SDS011;45043;51.068;7.026;2023-05-14T05:47:47;12.07;;;6.57;;
59271;SDS011;45043;51.068;7.026;2023-05-14T05:50:47;12.83;;;7.70;;
59271;SDS011;45043;51.068;7.026;2023-05-14T05:53:49;7.33;;;6.67;;
59271;SDS011;45043;51.068;7.026;2023-05-14T05:56:50;7.40;;;6.70;;
59271;SDS011;45043;51.068;7.026;2023-05-14T05:59:50;9.50;;;7.40;;
59271;SDS011;45043;51.068;7.026;2023-05-14T06:02:51;10.13;;;8.23;;
59271;SDS011;45043;51.068;7.026;2023-05-14T06:05:51;7.83;;;7.17;;
59271;SDS011;45043;51.068;7.026;2023-05-14T06:08:52;8.63;;;7.83;;
59271;SDS011;45043;51.068;7.026;2023-05-14T06:11:53;9.77;;;7.63;;
59271;SDS011;45043;51.068;7.026;2023-05-14T06:14:53;8.67;;;7.77;;
59271;SDS011;45043;51.068;7.026;2023-05-14T06:17:54;8.27;;;7.47;;
59271;SDS011;45043;51.068;7.026;2023-05-14T06:20:55;8.27;;;7.47;;
59271;SDS011;45043;51.068;7.026;2023-05-14T06:23:56;9.23;;;6.90;;
59271;SDS011;45043;51.068;7.026;2023-05-14T06:26:56;7.97;;;6.70;;
59271;SDS011;45043;51.068;7.026;2023-05-14T06:29:56;9.73;;;6.67;;
59271;SDS011;45043;51.068;7.026;2023-05-14T06:32:57;7.60;;;7.00;;
59271;SDS011;45043;51.068;7.026;2023-05-14T06:35:58;9.50;;;7.20;;
59271;SDS011;45043;51.068;7.026;2023-05-14T06:38:59;7.10;;;6.40;;
59271;SDS011;45043;51.068;7.026;2023-05-14T06:42:00;8.77;;;7.20;;
59271;SDS011;45043;51.068;7.026;2023-05-14T06:45:04;7.30;;;6.60;;
59271;SDS011;45043;51.068;7.026;2023-05-14T06:48:05;7.93;;;7.10;;
59271;SDS011;45043;51.068;7.026;2023-05-14T06:51:05;8.00;;;7.20;;
59271;SDS011;45043;51.068;7.026;2023-05-14T06:54:06;8.80;;;7.60;;
59271;SDS011;45043;51.068;7.026;2023-05-14T06:57:06;8.30;;;7.50;;
59271;SDS011;45043;51.068;7.026;2023-05-14T07:00:07;7.90;;;7.20;;
59271;SDS011;45043;51.068;7.026;2023-05-14T07:03:08;9.77;;;7.50;;
59271;SDS011;45043;51.068;7.026;2023-05-14T07:06:08;7.47;;;6.57;;
59271;SDS011;45043;51.068;7.026;2023-05-14T07:09:08;8.30;;;7.33;;
59271;SDS011;45043;51.068;7.026;2023-05-14T07:12:09;9.07;;;8.17;;
59271;SDS011;45043;51.068;7.026;2023-05-14T07:15:10;11.17;;;8.27;;
59271;SDS011;45043;51.068;7.026;2023-05-14T07:18:11;8.93;;;8.03;;
59271;SDS011;45043;51.068;7.026;2023-05-14T07:21:11;8.50;;;7.50;;
59271;SDS011;45043;51.068;7.026;2023-05-14T07:24:11;8.20;;;7.50;;
59271;SDS011;45043;51.068;7.026;2023-05-14T07:27:12;10.13;;;8.67;;
59271;SDS011;45043;51.068;7.026;2023-05-14T07:30:12;8.93;;;8.13;;
59271;SDS011;45043;51.068;7.026;2023-05-14T07:33:13;9.33;;;8.43;;
59271;SDS011;45043;51.068;7.026;2023-05-14T07:36:14;12.37;;;11.07;;
59271;SDS011;45043;51.068;7.026;2023-05-14T07:39:14;11.33;;;9.23;;
59271;SDS011;45043;51.068;7.026;2023-05-14T07:42:15;9.60;;;8.50;;
59271;SDS011;45043;51.068;7.026;2023-05-14T07:45:15;11.60;;;9.47;;
59271;SDS011;45043;51.068;7.026;2023-05-14T07:48:16;9.50;;;8.50;;
59271;SDS011;45043;51.068;7.026;2023-05-14T07:51:16;8.13;;;7.33;;
59271;SDS011;45043;51.068;7.026;2023-05-14T07:54:19;9.43;;;8.53;;
59271;SDS011;45043;51.068;7.026;2023-05-14T07:57:19;10.80;;;9.30;;
59271;SDS011;45043;51.068;7.026;2023-05-14T08:00:21;11.67;;;10.23;;
59271;SDS011;45043;51.068;7.026;2023-05-14T08:03:21;10.80;;;9.70;;
59271;SDS011;45043;51.068;7.026;2023-05-14T08:06:23;8.40;;;7.50;;
59271;SDS011;45043;51.068;7.026;2023-05-14T08:09:26;8.27;;;7.43;;
59271;SDS011;45043;51.068;7.026;2023-05-14T08:12:27;8.37;;;7.27;;
59271;SDS011;45043;51.068;7.026;2023-05-14T08:15:28;17.10;;;13.90;;
59271;SDS011;45043;51.068;7.026;2023-05-14T08:18:29;10.43;;;9.30;;
59271;SDS011;45043;51.068;7.026;2023-05-14T08:21:29;10.90;;;8.60;;
59271;SDS011;45043;51.068;7.026;2023-05-14T08:24:30;8.27;;;7.40;;
59271;SDS011;45043;51.068;7.026;2023-05-14T08:27:31;10.07;;;9.07;;
59271;SDS011;45043;51.068;7.026;2023-05-14T08:30:31;13.43;;;10.93;;
59271;SDS011;45043;51.068;7.026;2023-05-14T08:33:32;15.17;;;13.10;;
59271;SDS011;45043;51.068;7.026;2023-05-14T08:36:32;15.23;;;12.07;;
59271;SDS011;45043;51.068;7.026;2023-05-14T08:39:33;13.40;;;12.00;;
59271;SDS011;45043;51.068;7.026;2023-05-14T08:42:33;13.70;;;12.40;;
59271;SDS011;45043;51.068;7.026;2023-05-14T08:45:35;15.27;;;12.10;;
59271;SDS011;45043;51.068;7.026;2023-05-14T08:48:38;17.83;;;15.97;;
59271;SDS011;45043;51.068;7.026;2023-05-14T08:51:42;15.57;;;12.80;;
59271;SDS011;45043;51.068;7.026;2023-05-14T08:54:44;15.47;;;13.70;;
59271;SDS011;45043;51.068;7.026;2023-05-14T08:57:47;12.87;;;11.77;;
59271;SDS011;45043;51.068;7.026;2023-05-14T09:00:48;13.97;;;12.57;;
59271;SDS011;45043;51.068;7.026;2023-05-14T09:03:49;17.07;;;15.27;;
59271;SDS011;45043;51.068;7.026;2023-05-14T09:06:50;13.47;;;12.20;;
59271;SDS011;45043;51.068;7.026;2023-05-14T09:09:55;13.57;;;12.30;;
59271;SDS011;45043;51.068;7.026;2023-05-14T09:12:55;11.73;;;10.63;;
59271;SDS011;45043;51.068;7.026;2023-05-14T09:15:56;12.57;;;11.27;;
59271;SDS011;45043;51.068;7.026;2023-05-14T09:18:56;12.83;;;11.63;;
59271;SDS011;45043;51.068;7.026;2023-05-14T09:21:57;12.37;;;11.17;;
59271;SDS011;45043;51.068;7.026;2023-05-14T09:25:04;10.67;;;9.77;;
59271;SDS011;45043;51.068;7.026;2023-05-14T09:28:10;11.23;;;10.00;;
59271;SDS011;45043;51.068;7.026;2023-05-14T09:31:11;9.90;;;8.70;;
59271;SDS011;45043;51.068;7.026;2023-05-14T09:34:11;9.50;;;8.63;;
59271;SDS011;45043;51.068;7.026;2023-05-14T09:37:23;9.53;;;8.53;;
59271;SDS011;45043;51.068;7.026;2023-05-14T09:40:25;9.90;;;9.00;;
59271;SDS011;45043;51.068;7.026;2023-05-14T09:43:25;9.70;;;8.80;;
59271;SDS011;45043;51.068;7.026;2023-05-14T09:46:26;10.23;;;8.57;;
59271;SDS011;45043;51.068;7.026;2023-05-14T09:49:29;9.80;;;8.90;;
59271;SDS011;45043;51.068;7.026;2023-05-14T09:52:30;9.70;;;8.90;;
59271;SDS011;45043;51.068;7.026;2023-05-14T09:55:30;11.20;;;9.40;;
59271;SDS011;45043;51.068;7.026;2023-05-14T09:58:31;10.83;;;9.90;;
59271;SDS011;45043;51.068;7.026;2023-05-14T10:01:31;10.50;;;8.83;;
59271;SDS011;45043;51.068;7.026;2023-05-14T10:04:32;9.50;;;8.50;;
59271;SDS011;45043;51.068;7.026;2023-05-14T10:07:38;10.27;;;8.37;;
59271;SDS011;45043;51.068;7.026;2023-05-14T10:10:42;11.50;;;10.40;;
59271;SDS011;45043;51.068;7.026;2023-05-14T10:13:45;12.00;;;9.40;;
59271;SDS011;45043;51.068;7.026;2023-05-14T10:16:52;11.03;;;10.03;;
59271;SDS011;45043;51.068;7.026;2023-05-14T10:19:53;12.80;;;11.60;;
59271;SDS011;45043;51.068;7.026;2023-05-14T10:22:57;12.47;;;10.47;;
59271;SDS011;45043;51.068;7.026;2023-05-14T10:25:57;11.37;;;10.37;;
59271;SDS011;45043;51.068;7.026;2023-05-14T10:28:59;12.30;;;11.10;;
59271;SDS011;45043;51.068;7.026;2023-05-14T10:32:03;11.70;;;10.70;;
59271;SDS011;45043;51.068;7.026;2023-05-14T10:35:15;10.60;;;9.70;;
59271;SDS011;45043;51.068;7.026;2023-05-14T10:38:22;11.43;;;10.47;;
59271;SDS011;45043;51.068;7.026;2023-05-14T10:41:27;11.93;;;10.77;;
59271;SDS011;45043;51.068;7.026;2023-05-14T10:44:27;11.33;;;10.40;;
59271;SDS011;45043;51.068;7.026;2023-05-14T10:47:28;11.70;;;10.50;;
59271;SDS011;45043;51.068;7.026;2023-05-14T10:50:28;10.67;;;9.60;;
59271;SDS011;45043;51.068;7.026;2023-05-14T10:53:30;10.53;;;9.47;;
59271;SDS011;45043;51.068;7.026;2023-05-14T10:56:38;11.57;;;10.43;;
59271;SDS011;45043;51.068;7.026;2023-05-14T10:59:42;9.83;;;8.83;;
59271;SDS011;45043;51.068;7.026;2023-05-14T11:02:42;9.73;;;8.83;;
59271;SDS011;45043;51.068;7.026;2023-05-14T11:05:43;9.43;;;8.47;;
59271;SDS011;45043;51.068;7.026;2023-05-14T11:08:45;8.90;;;8.00;;
59271;SDS011;45043;51.068;7.026;2023-05-14T11:11:46;9.27;;;8.10;;
59271;SDS011;45043;51.068;7.026;2023-05-14T11:14:47;9.63;;;8.83;;
59271;SDS011;45043;51.068;7.026;2023-05-14T11:17:48;10.27;;;9.03;;
59271;SDS011;45043;51.068;7.026;2023-05-14T11:20:50;8.70;;;7.80;;
59271;SDS011;45043;51.068;7.026;2023-05-14T11:23:53;8.73;;;7.93;;
59271;SDS011;45043;51.068;7.026;2023-05-14T11:26:54;9.90;;;8.03;;
59271;SDS011;45043;51.068;7.026;2023-05-14T11:29:55;9.07;;;8.17;;
59271;SDS011;45043;51.068;7.026;2023-05-14T11:32:57;9.10;;;8.20;;
59271;SDS011;45043;51.068;7.026;2023-05-14T11:35:57;9.73;;;8.83;;
59271;SDS011;45043;51.068;7.026;2023-05-14T11:38:57;9.23;;;8.33;;
59271;SDS011;45043;51.068;7.026;2023-05-14T11:41:58;8.97;;;8.10;;
59271;SDS011;45043;51.068;7.026;2023-05-14T11:45:02;8.23;;;7.43;;
59271;SDS011;45043;51.068;7.026;2023-05-14T11:48:10;9.70;;;8.77;;
59271;SDS011;45043;51.068;7.026;2023-05-14T11:51:14;8.57;;;7.87;;
59271;SDS011;45043;51.068;7.026;2023-05-14T11:54:14;7.80;;;7.07;;
59271;SDS011;45043;51.068;7.026;2023-05-14T11:57:16;7.17;;;6.53;;
59271;SDS011;45043;51.068;7.026;2023-05-14T12:00:18;7.27;;;6.57;;
59271;SDS011;45043;51.068;7.026;2023-05-14T12:03:20;5.83;;;5.00;;
59271;SDS011;45043;51.068;7.026;2023-05-14T12:06:31;3.20;;;2.90;;
59271;SDS011;45043;51.068;7.026;2023-05-14T12:09:34;4.50;;;3.50;;
59271;SDS011;45043;51.068;7.026;2023-05-14T12:12:36;4.73;;;4.27;;
59271;SDS011;45043;51.068;7.026;2023-05-14T12:15:37;4.43;;;3.40;;
59271;SDS011;45043;51.068;7.026;2023-05-14T12:18:37;6.07;;;4.10;;
59271;SDS011;45043;51.068;7.026;2023-05-14T12:21:38;5.00;;;4.60;;
59271;SDS011;45043;51.068;7.026;2023-05-14T12:24:40;4.20;;;3.67;;
59271;SDS011;45043;51.068;7.026;2023-05-14T12:27:43;4.30;;;3.90;;
59271;SDS011;45043;51.068;7.026;2023-05-14T12:30:44;3.90;;;3.20;;
59271;SDS011;45043;51.068;7.026;2023-05-14T12:33:48;4.53;;;3.70;;
59271;SDS011;45043;51.068;7.026;2023-05-14T12:36:48;4.90;;;4.00;;
59271;SDS011;45043;51.068;7.026;2023-05-14T12:39:49;6.10;;;4.83;;
59271;SDS011;45043;51.068;7.026;2023-05-14T12:42:49;4.93;;;4.10;;
59271;SDS011;45043;51.068;7.026;2023-05-14T12:45:49;5.93;;;3.53;;
59271;SDS011;45043;51.068;7.026;2023-05-14T12:48:50;5.00;;;3.43;;
59271;SDS011;45043;51.068;7.026;2023-05-14T12:51:50;5.20;;;3.70;;
59271;SDS011;45043;51.068;7.026;2023-05-14T12:54:51;3.70;;;3.40;;
59271;SDS011;45043;51.068;7.026;2023-05-14T12:57:51;4.20;;;3.80;;
59271;SDS011;45043;51.068;7.026;2023-05-14T13:00:52;4.73;;;3.97;;
59271;SDS011;45043;51.068;7.026;2023-05-14T13:03:52;5.97;;;4.20;;
59271;SDS011;45043;51.068;7.026;2023-05-14T13:06:52;4.03;;;3.43;;
59271;SDS011;45043;51.068;7.026;2023-05-14T13:09:53;3.83;;;3.27;;
59271;SDS011;45043;51.068;7.026;2023-05-14T13:12:53;4.50;;;3.10;;
59271;SDS011;45043;51.068;7.026;2023-05-14T13:15:55;3.30;;;3.10;;
59271;SDS011;45043;51.068;7.026;2023-05-14T13:18:55;3.90;;;3.60;;
59271;SDS011;45043;51.068;7.026;2023-05-14T13:21:56;3.60;;;3.30;;
59271;SDS011;45043;51.068;7.026;2023-05-14T13:24:56;6.37;;;3.23;;
59271;SDS011;45043;51.068;7.026;2023-05-14T13:27:57;3.63;;;3.43;;
59271;SDS011;45043;51.068;7.026;2023-05-14T13:31:02;3.43;;;3.03;;
59271;SDS011;45043;51.068;7.026;2023-05-14T13:34:06;3.20;;;3.00;;
59271;SDS011;45043;51.068;7.026;2023-05-14T13:37:07;5.73;;;5.23;;
59271;SDS011;45043;51.068;7.026;2023-05-14T13:40:07;4.90;;;4.37;;
59271;SDS011;45043;51.068;7.026;2023-05-14T13:43:09;4.20;;;3.80;;
59271;SDS011;45043;51.068;7.026;2023-05-14T13:46:09;4.30;;;3.53;;
59271;SDS011;45043;51.068;7.026;2023-05-14T13:49:10;4.10;;;3.80;;
59271;SDS011;45043;51.068;7.026;2023-05-14T13:52:10;3.43;;;3.20;;
59271;SDS011;45043;51.068;7.026;2023-05-14T13:55:11;7.00;;;3.70;;
59271;SDS011;45043;51.068;7.026;2023-05-14T13:58:12;5.23;;;3.90;;
59271;SDS011;45043;51.068;7.026;2023-05-14T14:01:12;4.37;;;3.43;;
59271;SDS011;45043;51.068;7.026;2023-05-14T14:04:13;3.80;;;3.50;;
59271;SDS011;45043;51.068;7.026;2023-05-14T14:07:15;6.07;;;3.77;;
59271;SDS011;45043;51.068;7.026;2023-05-14T14:10:16;6.23;;;3.53;;
59271;SDS011;45043;51.068;7.026;2023-05-14T14:13:16;4.63;;;3.80;;
59271;SDS011;45043;51.068;7.026;2023-05-14T14:16:16;4.63;;;3.13;;
59271;SDS011;45043;51.068;7.026;2023-05-14T14:19:17;4.23;;;3.67;;
59271;SDS011;45043;51.068;7.026;2023-05-14T14:22:18;6.50;;;3.50;;
59271;SDS011;45043;51.068;7.026;2023-05-14T14:25:18;6.67;;;3.60;;
59271;SDS011;45043;51.068;7.026;2023-05-14T14:28:19;4.23;;;3.03;;
59271;SDS011;45043;51.068;7.026;2023-05-14T14:31:19;4.47;;;3.87;;
59271;SDS011;45043;51.068;7.026;2023-05-14T14:34:20;5.43;;;3.60;;
59271;SDS011;45043;51.068;7.026;2023-05-14T14:37:20;3.43;;;3.13;;
59271;SDS011;45043;51.068;7.026;2023-05-14T14:40:21;4.00;;;3.53;;
59271;SDS011;45043;51.068;7.026;2023-05-14T14:43:23;3.43;;;3.13;;
59271;SDS011;45043;51.068;7.026;2023-05-14T14:46:23;4.07;;;3.77;;
59271;SDS011;45043;51.068;7.026;2023-05-14T14:49:24;4.20;;;3.60;;
59271;SDS011;45043;51.068;7.026;2023-05-14T14:52:25;3.50;;;3.27;;
59271;SDS011;45043;51.068;7.026;2023-05-14T14:55:26;5.33;;;4.87;;
59271;SDS011;45043;51.068;7.026;2023-05-14T14:58:26;5.40;;;4.47;;
59271;SDS011;45043;51.068;7.026;2023-05-14T15:01:27;5.03;;;4.50;;
59271;SDS011;45043;51.068;7.026;2023-05-14T15:04:27;4.63;;;4.23;;
59271;SDS011;45043;51.068;7.026;2023-05-14T15:07:31;5.00;;;3.33;;
59271;SDS011;45043;51.068;7.026;2023-05-14T15:10:32;4.10;;;3.70;;
59271;SDS011;45043;51.068;7.026;2023-05-14T15:13:36;3.45;;;3.20;;
59271;SDS011;45043;51.068;7.026;2023-05-14T15:16:39;3.40;;;3.10;;
59271;SDS011;45043;51.068;7.026;2023-05-14T15:19:40;4.40;;;4.00;;
59271;SDS011;45043;51.068;7.026;2023-05-14T15:22:41;5.75;;;3.63;;
59271;SDS011;45043;51.068;7.026;2023-05-14T15:25:42;4.22;;;3.45;;
59271;SDS011;45043;51.068;7.026;2023-05-14T15:28:42;3.22;;;3.03;;
59271;SDS011;45043;51.068;7.026;2023-05-14T15:31:43;3.35;;;3.15;;
59271;SDS011;45043;51.068;7.026;2023-05-14T15:34:44;10.00;;;8.10;;
59271;SDS011;45043;51.068;7.026;2023-05-14T15:37:45;6.27;;;4.80;;
59271;SDS011;45043;51.068;7.026;2023-05-14T15:40:45;3.27;;;3.07;;
59271;SDS011;45043;51.068;7.026;2023-05-14T15:43:46;3.53;;;3.22;;
59271;SDS011;45043;51.068;7.026;2023-05-14T15:46:46;3.40;;;3.10;;
59271;SDS011;45043;51.068;7.026;2023-05-14T15:49:46;2.70;;;2.50;;
59271;SDS011;45043;51.068;7.026;2023-05-14T15:52:47;3.97;;;3.15;;
59271;SDS011;45043;51.068;7.026;2023-05-14T15:55:47;3.03;;;2.63;;
59271;SDS011;45043;51.068;7.026;2023-05-14T15:58:48;3.50;;;3.30;;
59271;SDS011;45043;51.068;7.026;2023-05-14T16:01:49;3.13;;;2.90;;
59271;SDS011;45043;51.068;7.026;2023-05-14T16:04:50;3.05;;;2.75;;
59271;SDS011;45043;51.068;7.026;2023-05-14T16:07:50;3.88;;;2.90;;
59271;SDS011;45043;51.068;7.026;2023-05-14T16:10:51;2.75;;;2.55;;
59271;SDS011;45043;51.068;7.026;2023-05-14T16:13:51;5.45;;;2.90;;
59271;SDS011;45043;51.068;7.026;2023-05-14T16:16:52;2.40;;;2.30;;
59271;SDS011;45043;51.068;7.026;2023-05-14T16:19:53;5.43;;;4.83;;
59271;SDS011;45043;51.068;7.026;2023-05-14T16:22:53;9.73;;;7.97;;
59271;SDS011;45043;51.068;7.026;2023-05-14T16:25:54;5.57;;;4.77;;
59271;SDS011;45043;51.068;7.026;2023-05-14T16:28:54;3.17;;;2.87;;
59271;SDS011;45043;51.068;7.026;2023-05-14T16:31:55;3.20;;;2.93;;
59271;SDS011;45043;51.068;7.026;2023-05-14T16:34:57;3.73;;;3.00;;
59271;SDS011;45043;51.068;7.026;2023-05-14T16:37:58;3.57;;;3.27;;
59271;SDS011;45043;51.068;7.026;2023-05-14T16:40:59;3.30;;;3.00;;
59271;SDS011;45043;51.068;7.026;2023-05-14T16:44:00;3.08;;;2.88;;
59271;SDS011;45043;51.068;7.026;2023-05-14T16:47:00;3.00;;;2.80;;
59271;SDS011;45043;51.068;7.026;2023-05-14T16:50:01;3.20;;;2.90;;
59271;SDS011;45043;51.068;7.026;2023-05-14T16:53:02;2.80;;;2.60;;
59271;SDS011;45043;51.068;7.026;2023-05-14T16:56:02;3.05;;;2.80;;
59271;SDS011;45043;51.068;7.026;2023-05-14T16:59:03;3.50;;;3.20;;
59271;SDS011;45043;51.068;7.026;2023-05-14T17:02:05;7.65;;;3.95;;
59271;SDS011;45043;51.068;7.026;2023-05-14T17:05:06;3.72;;;3.42;;
59271;SDS011;45043;51.068;7.026;2023-05-14T17:08:07;6.32;;;3.90;;
59271;SDS011;45043;51.068;7.026;2023-05-14T17:11:08;4.53;;;4.13;;
59271;SDS011;45043;51.068;7.026;2023-05-14T17:14:09;3.58;;;3.20;;
59271;SDS011;45043;51.068;7.026;2023-05-14T17:17:09;3.63;;;3.33;;
59271;SDS011;45043;51.068;7.026;2023-05-14T17:20:10;3.60;;;3.40;;
59271;SDS011;45043;51.068;7.026;2023-05-14T17:23:11;4.87;;;4.43;;
59271;SDS011;45043;51.068;7.026;2023-05-14T17:26:12;4.27;;;3.63;;
59271;SDS011;45043;51.068;7.026;2023-05-14T17:29:13;5.70;;;5.23;;
59271;SDS011;45043;51.068;7.026;2023-05-14T17:32:13;3.23;;;3.03;;
59271;SDS011;45043;51.068;7.026;2023-05-14T17:35:14;3.27;;;2.97;;
59271;SDS011;45043;51.068;7.026;2023-05-14T17:38:15;2.83;;;2.63;;
59271;SDS011;45043;51.068;7.026;2023-05-14T17:41:16;2.83;;;2.63;;
59271;SDS011;45043;51.068;7.026;2023-05-14T17:44:16;5.20;;;2.67;;
59271;SDS011;45043;51.068;7.026;2023-05-14T17:47:17;3.27;;;2.90;;
59271;SDS011;45043;51.068;7.026;2023-05-14T17:50:19;3.47;;;2.73;;
59271;SDS011;45043;51.068;7.026;2023-05-14T17:53:20;3.60;;;2.80;;
59271;SDS011;45043;51.068;7.026;2023-05-14T17:56:20;3.13;;;2.93;;
59271;SDS011;45043;51.068;7.026;2023-05-14T17:59:21;4.30;;;3.73;;
59271;SDS011;45043;51.068;7.026;2023-05-14T18:02:21;8.10;;;7.13;;
59271;SDS011;45043;51.068;7.026;2023-05-14T18:05:22;8.83;;;6.63;;
59271;SDS011;45043;51.068;7.026;2023-05-14T18:08:22;8.50;;;5.80;;
59271;SDS011;45043;51.068;7.026;2023-05-14T18:11:23;7.73;;;5.57;;
59271;SDS011;45043;51.068;7.026;2023-05-14T18:14:23;8.57;;;5.30;;
59271;SDS011;45043;51.068;7.026;2023-05-14T18:17:24;5.50;;;4.70;;
59271;SDS011;45043;51.068;7.026;2023-05-14T18:20:24;4.50;;;4.10;;
59271;SDS011;45043;51.068;7.026;2023-05-14T18:23:25;3.77;;;3.20;;
59271;SDS011;45043;51.068;7.026;2023-05-14T18:26:26;3.00;;;2.80;;
59271;SDS011;45043;51.068;7.026;2023-05-14T18:29:26;3.17;;;2.87;;
59271;SDS011;45043;51.068;7.026;2023-05-14T18:32:27;2.93;;;2.73;;